FranceFixed distance
Luchon Aneto Trail - L'Ultra Lat
6–7 Jul2024
Distance
85km
Finishers
273238 men35 women
Winning time
6:48:30h
Median pace
7.83km/h
Pace distribution
273 finishers · 5.96–12.48 km/h · mean 8.01
Every finisher ran the same 85 km course, so these paces are directly comparable.
Histogram of finisher pace. 273 finishers ranged from 5.96 to 12.48 kilometres per hour, with a mean of 8.01 and a median of 7.83. The busiest band is 7.5 to 8.0 kilometres per hour, with 49 finishers.
Results
Ranks 151–200 of 273
| Rank | Runner | Time | Pace | Cat. | Placing |
|---|---|---|---|---|---|
| 151 | Benfica des Saucisses | 11:06:05h | 7.66 | M35 | 134th M · 30th M35 |
| 152 | 11:07:45h | 7.64 | M45 | 135th M · 24th M45 | |
| 153 | 11:07:46h | 7.64 | M40 | 136th M · 38th M40 | |
| 154 | Rrunning Castres | 11:07:51h | 7.64 | W40 | 18th F · 3rd W40 |
| 155 | Stade Toulousain Athle... | 11:08:54h | 7.62 | M35 | 137th M · 31st M35 |
| 156 | Brocéliande Aventure | 11:11:38h | 7.59 | M45 | 138th M · 25th M45 |
| 157 | Stade Mont de Marsan | 11:13:15h | 7.58 | M45 | 139th M · 26th M45 |
| 158 | Trix Team | 11:14:08h | 7.57 | M40 | 140th M · 39th M40 |
| 159 | *Saint-Martin-De-Queyr... | 11:15:19h | 7.55 | W23 | 19th F · 8th W23 |
| 159 | Urtxintxak | 11:15:19h | 7.55 | M35 | 141st M · 32nd M35 |
| 159 | Urtxintxak | 11:15:19h | 7.55 | M40 | 141st M · 40th M40 |
| 162 | 11:16:04h | 7.54 | M55 | 143rd M · 3rd M55 | |
| 163 | Asso les Coureurs du P... | 11:16:07h | 7.54 | W45 | 20th F · 4th W45 |
| 164 | Amikuze AC Saint Palais | 11:16:47h | 7.54 | W40 | 21st F · 4th W40 |
| 165 | Sauvagnon 64 | 11:17:01h | 7.53 | M50 | 144th M · 10th M50 |
| 165 | Canejan Athletisme | 11:17:01h | 7.53 | M45 | 144th M · 27th M45 |
| 167 | *Azereix | 11:17:16h | 7.53 | M23 | 146th M · 31st M23 |
| 168 | CA Balma Trail | 11:17:50h | 7.52 | W40 | 22nd F · 5th W40 |
| 169 | Association Lilou Bel'... | 11:18:20h | 7.52 | M45 | 147th M · 28th M45 |
| 170 | 11:19:14h | 7.51 | M35 | 148th M · 33rd M35 | |
| 171 | *Essarts-En-Bocage | 11:20:01h | 7.50 | M35 | 149th M · 34th M35 |
| 172 | Airbus Running | 11:22:24h | 7.47 | M50 | 150th M · 11th M50 |
| 173 | les Fondus | 11:23:22h | 7.46 | M35 | 151st M · 35th M35 |
| 174 | Esprit Sports | 11:26:41h | 7.43 | M40 | 152nd M · 41st M40 |
| 175 | 11:26:52h | 7.42 | M50 | 153rd M · 12th M50 | |
| 176 | *La Baule-Escoublac | 11:28:54h | 7.40 | M23 | 154th M · 32nd M23 |
| 177 | Passion Trail Lauragais | 11:29:41h | 7.39 | M23 | 155th M · 33rd M23 |
| 178 | les Givrés de la Plain... | 11:29:59h | 7.39 | M40 | 156th M · 42nd M40 |
| 179 | 11:30:48h | 7.38 | W40 | 23rd F · 6th W40 | |
| 180 | Patatrail Luchon | 11:30:49h | 7.38 | W35 | 24th F · 4th W35 |
| 181 | CSE Airbus Atlantic | 11:32:30h | 7.37 | M23 | 157th M · 34th M23 |
| 181 | 11:32:30h | 7.37 | M35 | 157th M · 36th M35 | |
| 183 | 11:32:47h | 7.36 | M50 | 159th M · 13th M50 | |
| 184 | A TO Trapo | 11:35:30h | 7.33 | M45 | 160th M · 29th M45 |
| 185 | CAP Nature Beaulieu | 11:36:14h | 7.33 | M45 | 161st M · 30th M45 |
| 185 | CAP Nature Beaulieu | 11:36:14h | 7.33 | M55 | 161st M · 4th M55 |
| 187 | Bruz Athlétisme | 11:37:44h | 7.31 | M23 | 163rd M · 35th M23 |
| 188 | D+ | 11:37:51h | 7.31 | M23 | 164th M · 36th M23 |
| 189 | Desperado Trail | 11:38:35h | 7.30 | W45 | 25th F · 5th W45 |
| 190 | CA Balma | 11:38:47h | 7.30 | M35 | 165th M · 37th M35 |
| 191 | 11:40:46h | 7.28 | M50 | 166th M · 14th M50 | |
| 192 | *Saint-Médard-En-Jalles | 11:43:55h | 7.25 | M60 | 167th M · 1st M60 |
| 193 | Montaut Sport Athletisme | 11:45:35h | 7.23 | M40 | 168th M · 43rd M40 |
| 193 | 11:45:35h | 7.23 | M45 | 168th M · 31st M45 | |
| 195 | Trail'Savates | 11:47:22h | 7.21 | M50 | 170th M · 15th M50 |
| 196 | ESM Challans | 11:47:47h | 7.21 | M40 | 171st M · 44th M40 |
| 197 | Raid'Apte | 11:49:11h | 7.19 | M23 | 172nd M · 37th M23 |
| 198 | Triathlon Toulouse Mét... | 11:49:37h | 7.19 | M23 | 173rd M · 38th M23 |
| 199 | Bouliac Sports Plaisirs | 11:50:31h | 7.18 | W35 | 26th F · 5th W35 |
| 200 | *Teulat | 11:50:49h | 7.17 | M40 | 174th M · 45th M40 |
- 151Benfica des Saucisses134th M · 30th M35Time11:06:05hPace7.66Cat.M35
- 152135th M · 24th M45Time11:07:45hPace7.64Cat.M45
- 153136th M · 38th M40Time11:07:46hPace7.64Cat.M40
- 154Rrunning Castres18th F · 3rd W40Time11:07:51hPace7.64Cat.W40
- 155Stade Toulousain Athle...137th M · 31st M35Time11:08:54hPace7.62Cat.M35
- 156Brocéliande Aventure138th M · 25th M45Time11:11:38hPace7.59Cat.M45
- 157Stade Mont de Marsan139th M · 26th M45Time11:13:15hPace7.58Cat.M45
- 158Trix Team140th M · 39th M40Time11:14:08hPace7.57Cat.M40
- 159*Saint-Martin-De-Queyr...19th F · 8th W23Time11:15:19hPace7.55Cat.W23
- 159Urtxintxak141st M · 32nd M35Time11:15:19hPace7.55Cat.M35
- 159Urtxintxak141st M · 40th M40Time11:15:19hPace7.55Cat.M40
- 162143rd M · 3rd M55Time11:16:04hPace7.54Cat.M55
- 163Asso les Coureurs du P...20th F · 4th W45Time11:16:07hPace7.54Cat.W45
- 164Amikuze AC Saint Palais21st F · 4th W40Time11:16:47hPace7.54Cat.W40
- 165Sauvagnon 64144th M · 10th M50Time11:17:01hPace7.53Cat.M50
- 165Canejan Athletisme144th M · 27th M45Time11:17:01hPace7.53Cat.M45
- 167*Azereix146th M · 31st M23Time11:17:16hPace7.53Cat.M23
- 168CA Balma Trail22nd F · 5th W40Time11:17:50hPace7.52Cat.W40
- 169Association Lilou Bel'...147th M · 28th M45Time11:18:20hPace7.52Cat.M45
- 170148th M · 33rd M35Time11:19:14hPace7.51Cat.M35
- 171*Essarts-En-Bocage149th M · 34th M35Time11:20:01hPace7.50Cat.M35
- 172Airbus Running150th M · 11th M50Time11:22:24hPace7.47Cat.M50
- 173les Fondus151st M · 35th M35Time11:23:22hPace7.46Cat.M35
- 174Esprit Sports152nd M · 41st M40Time11:26:41hPace7.43Cat.M40
- 175153rd M · 12th M50Time11:26:52hPace7.42Cat.M50
- 176*La Baule-Escoublac154th M · 32nd M23Time11:28:54hPace7.40Cat.M23
- 177Passion Trail Lauragais155th M · 33rd M23Time11:29:41hPace7.39Cat.M23
- 178les Givrés de la Plain...156th M · 42nd M40Time11:29:59hPace7.39Cat.M40
- 17923rd F · 6th W40Time11:30:48hPace7.38Cat.W40
- 180Patatrail Luchon24th F · 4th W35Time11:30:49hPace7.38Cat.W35
- 181CSE Airbus Atlantic157th M · 34th M23Time11:32:30hPace7.37Cat.M23
- 181157th M · 36th M35Time11:32:30hPace7.37Cat.M35
- 183159th M · 13th M50Time11:32:47hPace7.36Cat.M50
- 184A TO Trapo160th M · 29th M45Time11:35:30hPace7.33Cat.M45
- 185CAP Nature Beaulieu161st M · 30th M45Time11:36:14hPace7.33Cat.M45
- 185CAP Nature Beaulieu161st M · 4th M55Time11:36:14hPace7.33Cat.M55
- 187Bruz Athlétisme163rd M · 35th M23Time11:37:44hPace7.31Cat.M23
- 188D+164th M · 36th M23Time11:37:51hPace7.31Cat.M23
- 189Desperado Trail25th F · 5th W45Time11:38:35hPace7.30Cat.W45
- 190CA Balma165th M · 37th M35Time11:38:47hPace7.30Cat.M35
- 191166th M · 14th M50Time11:40:46hPace7.28Cat.M50
- 192*Saint-Médard-En-Jalles167th M · 1st M60Time11:43:55hPace7.25Cat.M60
- 193Montaut Sport Athletisme168th M · 43rd M40Time11:45:35hPace7.23Cat.M40
- 193168th M · 31st M45Time11:45:35hPace7.23Cat.M45
- 195Trail'Savates170th M · 15th M50Time11:47:22hPace7.21Cat.M50
- 196ESM Challans171st M · 44th M40Time11:47:47hPace7.21Cat.M40
- 197Raid'Apte172nd M · 37th M23Time11:49:11hPace7.19Cat.M23
- 198Triathlon Toulouse Mét...173rd M · 38th M23Time11:49:37hPace7.19Cat.M23
- 199Bouliac Sports Plaisirs26th F · 5th W35Time11:50:31hPace7.18Cat.W35
- 200*Teulat174th M · 45th M40Time11:50:49hPace7.17Cat.M40
Showing ranks 151–200 of 273